createdAt,value
2024-04-16T00:01:39.919Z,100028.00
2024-04-16T00:04:07.345Z,100034.00
2024-04-16T00:06:34.515Z,100026.00
2024-04-16T00:09:02.065Z,100024.00
2024-04-16T00:12:27.668Z,100021.00
2024-04-16T00:14:55.161Z,100021.00
2024-04-16T00:17:24.779Z,100014.00
2024-04-16T00:19:52.196Z,100002.00
2024-04-16T00:22:19.439Z,100016.00
2024-04-16T00:24:46.756Z,100010.00
2024-04-16T00:27:14.111Z,100004.00
2024-04-16T00:29:45.006Z,99999.00
2024-04-16T00:32:13.120Z,99994.00
2024-04-16T00:34:42.752Z,99985.00
2024-04-16T00:37:10.151Z,99978.00
2024-04-16T00:39:37.411Z,99982.00
2024-04-16T00:42:04.877Z,99981.00
2024-04-16T00:44:32.744Z,99982.00
2024-04-16T00:47:00.669Z,99974.00
2024-04-16T00:49:28.099Z,99985.00
2024-04-16T00:52:33.063Z,99974.00
2024-04-16T00:55:00.645Z,99975.00
2024-04-16T00:57:28.110Z,99972.00
2024-04-16T01:00:00.131Z,99976.00
2024-04-16T01:02:27.362Z,99963.00
2024-04-16T01:04:56.589Z,99962.00
2024-04-16T01:07:25.854Z,99963.00
2024-04-16T01:09:53.076Z,99963.00
2024-04-16T01:12:20.276Z,99958.00
2024-04-16T01:14:47.466Z,99951.00
2024-04-16T01:17:14.736Z,99947.00
2024-04-16T01:19:42.280Z,99942.00
2024-04-16T01:22:11.620Z,99931.00
2024-04-16T01:24:38.935Z,99932.00
2024-04-16T01:27:06.352Z,99932.00
2024-04-16T01:29:33.566Z,99937.00
2024-04-16T01:32:00.771Z,99927.00
2024-04-16T01:34:28.122Z,99930.00
2024-04-16T01:36:55.447Z,99923.00
2024-04-16T01:39:23.989Z,99926.00
2024-04-16T01:41:51.358Z,99937.00
2024-04-16T01:44:18.578Z,99939.00
2024-04-16T01:46:45.862Z,99928.00
2024-04-16T01:49:13.056Z,99929.00
2024-04-16T01:51:40.438Z,99921.00
2024-04-16T01:54:07.732Z,99918.00
2024-04-16T01:56:35.109Z,99909.00
2024-04-16T01:59:03.591Z,99907.00
2024-04-16T02:01:30.943Z,99910.00
2024-04-16T02:03:58.642Z,99891.00
2024-04-16T02:06:26.058Z,99912.00
2024-04-16T02:08:54.040Z,99912.00
2024-04-16T02:11:21.321Z,99911.00
2024-04-16T02:13:48.526Z,99917.00
2024-04-16T02:16:15.729Z,99920.00
2024-04-16T02:18:43.087Z,99921.00
2024-04-16T02:21:10.543Z,99902.00
2024-04-16T02:23:37.736Z,99911.00
2024-04-16T02:26:05.217Z,99917.00
2024-04-16T02:28:32.905Z,99895.00
2024-04-16T02:31:00.673Z,99889.00
2024-04-16T02:33:27.983Z,99889.00
2024-04-16T02:35:56.894Z,99896.00
2024-04-16T02:38:24.198Z,99899.00
2024-04-16T02:41:29.384Z,99890.00
2024-04-16T02:43:57.486Z,99880.00
2024-04-16T02:46:24.907Z,99882.00
2024-04-16T02:48:52.233Z,99878.00
2024-04-16T02:51:19.481Z,99870.00
2024-04-16T02:53:46.840Z,99855.00
2024-04-16T02:56:14.049Z,99865.00
2024-04-16T02:58:44.939Z,99852.00
2024-04-16T03:01:12.420Z,99851.00
2024-04-16T03:03:39.955Z,99858.00
2024-04-16T03:06:07.561Z,99859.00
2024-04-16T03:08:34.920Z,99858.00
2024-04-16T03:11:03.839Z,99859.00
2024-04-16T03:13:31.412Z,99854.00
2024-04-16T03:15:58.736Z,99851.00
2024-04-16T03:18:26.019Z,99847.00
2024-04-16T03:21:01.809Z,99847.00
2024-04-16T03:23:29.560Z,99851.00
2024-04-16T03:25:57.178Z,99853.00
2024-04-16T03:28:24.469Z,99849.00
2024-04-16T03:30:52.911Z,99835.00
2024-04-16T03:33:20.196Z,99838.00
2024-04-16T03:36:25.262Z,99838.00
2024-04-16T03:39:12.675Z,99840.00
2024-04-16T03:41:39.965Z,99830.00
2024-04-16T03:44:07.181Z,99822.00
2024-04-16T03:46:34.484Z,99813.00
2024-04-16T03:49:01.814Z,99825.00
2024-04-16T03:51:29.010Z,99822.00
2024-04-16T03:53:56.247Z,99826.00
2024-04-16T03:56:23.922Z,99818.00
2024-04-16T03:59:16.842Z,99811.00
2024-04-16T04:01:44.692Z,99810.00
2024-04-16T04:04:13.126Z,99797.00
2024-04-16T04:06:40.404Z,99810.00
2024-04-16T04:09:07.702Z,99785.00
2024-04-16T04:11:36.050Z,99790.00
2024-04-16T04:14:03.402Z,99812.00
2024-04-16T04:16:30.614Z,99788.00
2024-04-16T04:19:00.459Z,99793.00
2024-04-16T04:22:06.053Z,99788.00
2024-04-16T04:24:35.430Z,99777.00
2024-04-16T04:27:04.551Z,99780.00
2024-04-16T04:29:32.009Z,99768.00
2024-04-16T04:32:00.218Z,99771.00
2024-04-16T04:34:28.203Z,99777.00
2024-04-16T04:36:55.561Z,99771.00
2024-04-16T04:39:23.074Z,99760.00
2024-04-16T04:41:50.294Z,99762.00
2024-04-16T04:44:50.810Z,99766.00
2024-04-16T04:47:19.609Z,99769.00
2024-04-16T04:49:47.063Z,99757.00
2024-04-16T04:52:14.690Z,99754.00
2024-04-16T04:54:42.349Z,99739.00
2024-04-16T04:57:10.202Z,99741.00
2024-04-16T04:59:37.874Z,99744.00
2024-04-16T05:02:05.715Z,99742.00
2024-04-16T05:04:33.350Z,99727.00
2024-04-16T05:07:19.721Z,99723.00
2024-04-16T05:09:47.336Z,99731.00
2024-04-16T05:12:16.026Z,99734.00
2024-04-16T05:14:43.860Z,99733.00
2024-04-16T05:17:11.167Z,99721.00
2024-04-16T05:19:38.456Z,99714.00
2024-04-16T05:22:05.921Z,99728.00
2024-04-16T05:24:34.026Z,99712.00
2024-04-16T05:27:01.448Z,99708.00
2024-04-16T05:29:28.661Z,99704.00
2024-04-16T05:31:55.914Z,99695.00
2024-04-16T05:34:23.302Z,99697.00
2024-04-16T05:36:50.533Z,99702.00
2024-04-16T05:39:17.754Z,99701.00
2024-04-16T05:41:45.157Z,99687.00
2024-04-16T05:44:12.319Z,99683.00
2024-04-16T05:46:41.900Z,99667.00
2024-04-16T05:49:09.488Z,99675.00
2024-04-16T05:51:37.257Z,99677.00
2024-04-16T05:54:08.041Z,99670.00
2024-04-16T05:56:35.954Z,99675.00
2024-04-16T05:59:04.520Z,99673.00
2024-04-16T06:02:26.401Z,99666.00
2024-04-16T06:04:57.620Z,99668.00
2024-04-16T06:07:24.899Z,99667.00
2024-04-16T06:09:52.193Z,99671.00
2024-04-16T06:12:19.470Z,99661.00
2024-04-16T06:14:46.827Z,99682.00
2024-04-16T06:17:14.103Z,99649.00
2024-04-16T06:19:44.828Z,99673.00
2024-04-16T06:22:12.756Z,99658.00
2024-04-16T06:24:40.018Z,99647.00
2024-04-16T06:27:07.323Z,99653.00
2024-04-16T06:29:34.669Z,99638.00
2024-04-16T06:32:02.804Z,99644.00
2024-04-16T06:34:30.180Z,99618.00
2024-04-16T06:36:57.745Z,99629.00
2024-04-16T06:39:25.082Z,99621.00
2024-04-16T06:41:52.424Z,99624.00
2024-04-16T06:44:19.802Z,99627.00
2024-04-16T06:46:47.091Z,99631.00
2024-04-16T06:49:18.756Z,99631.00
2024-04-16T06:53:06.558Z,99649.00
2024-04-16T06:55:33.993Z,99647.00
2024-04-16T06:58:02.320Z,99635.00
2024-04-16T07:00:29.588Z,99620.00
2024-04-16T07:03:17.372Z,99626.00
2024-04-16T07:06:03.707Z,99620.00
2024-04-16T07:08:30.971Z,99625.00
2024-04-16T07:10:58.332Z,99623.00
2024-04-16T07:13:25.737Z,99635.00
2024-04-16T07:15:53.336Z,99628.00
2024-04-16T07:19:19.632Z,99636.00
2024-04-16T07:21:46.930Z,99641.00
2024-04-16T07:24:14.411Z,99636.00
2024-04-16T07:26:41.644Z,99630.00
2024-04-16T07:29:09.133Z,99632.00
2024-04-16T07:31:42.270Z,99613.00
2024-04-16T07:34:12.778Z,99609.00
2024-04-16T07:36:40.608Z,99617.00
2024-04-16T07:39:12.132Z,99632.00
2024-04-16T07:41:39.545Z,99617.00
2024-04-16T07:44:06.908Z,99634.00
2024-04-16T07:46:35.554Z,99618.00
2024-04-16T07:49:03.430Z,99613.00
2024-04-16T07:51:30.771Z,99615.00
2024-04-16T07:53:58.027Z,99622.00
2024-04-16T07:56:25.536Z,99614.00
2024-04-16T07:59:11.803Z,99626.00
2024-04-16T08:05:39.242Z,99634.00
2024-04-16T08:08:13.223Z,99625.00
2024-04-16T08:10:43.977Z,99628.00
2024-04-16T08:13:11.609Z,99650.00
2024-04-16T08:15:38.852Z,99640.00
2024-04-16T08:18:06.626Z,99637.00
2024-04-16T08:20:34.007Z,99646.00
2024-04-16T08:23:01.200Z,99663.00
2024-04-16T08:25:28.483Z,99663.00
2024-04-16T08:27:55.793Z,99673.00
2024-04-16T08:30:23.210Z,99663.00
2024-04-16T08:32:50.600Z,99683.00
2024-04-16T08:35:29.834Z,99677.00
2024-04-16T08:37:57.295Z,99676.00
2024-04-16T08:40:59.972Z,99660.00
2024-04-16T08:43:27.594Z,99671.00
2024-04-16T08:45:56.938Z,99703.00
2024-04-16T08:48:24.721Z,99697.00
2024-04-16T08:50:53.670Z,99705.00
2024-04-16T08:53:23.497Z,99689.00
2024-04-16T08:55:53.337Z,99689.00
2024-04-16T08:58:22.120Z,99689.00
2024-04-16T09:00:50.990Z,99695.00
2024-04-16T09:03:18.764Z,99690.00
2024-04-16T09:05:50.546Z,99696.00
2024-04-16T09:08:18.740Z,99713.00
2024-04-16T09:10:46.128Z,99700.00
2024-04-16T09:13:14.650Z,99698.00
2024-04-16T09:15:43.066Z,99713.00
2024-04-16T09:18:10.593Z,99720.00
2024-04-16T09:20:37.993Z,99713.00
2024-04-16T09:23:07.074Z,99712.00
2024-04-16T09:25:41.571Z,99704.00
2024-04-16T09:28:08.892Z,99724.00
2024-04-16T09:30:36.352Z,99736.00
2024-04-16T09:33:11.275Z,99742.00
2024-04-16T09:35:43.575Z,99736.00
2024-04-16T09:38:11.208Z,99736.00
2024-04-16T09:40:38.818Z,99739.00
2024-04-16T09:43:08.121Z,99732.00
2024-04-16T09:45:38.962Z,99745.00
2024-04-16T09:48:09.536Z,99745.00
2024-04-16T09:50:49.700Z,99755.00
2024-04-16T09:53:26.591Z,99760.00
2024-04-16T09:55:56.459Z,99763.00
2024-04-16T09:58:51.629Z,99799.00
2024-04-16T10:01:22.051Z,99805.00
2024-04-16T10:03:52.700Z,99824.00
2024-04-16T10:06:38.811Z,99838.00
2024-04-16T10:09:06.016Z,99840.00
2024-04-16T10:11:34.062Z,99847.00
2024-04-16T10:14:02.600Z,99853.00
2024-04-16T10:16:29.849Z,99860.00
2024-04-16T10:18:58.385Z,99872.00
2024-04-16T10:21:27.467Z,99882.00
2024-04-16T10:24:07.395Z,99869.00
2024-04-16T10:26:42.232Z,99880.00
2024-04-16T10:29:18.097Z,99858.00
2024-04-16T10:31:56.352Z,99866.00
2024-04-16T10:34:28.629Z,99880.00
2024-04-16T10:36:58.214Z,99873.00
2024-04-16T10:39:35.596Z,99865.00
2024-04-16T10:42:04.621Z,99875.00
2024-04-16T10:44:35.077Z,99878.00
2024-04-16T10:47:02.979Z,99883.00
2024-04-16T10:49:30.599Z,99882.00
2024-04-16T10:51:58.121Z,99886.00
2024-04-16T10:54:25.528Z,99883.00
2024-04-16T10:56:53.014Z,99894.00
2024-04-16T10:59:20.669Z,99902.00
2024-04-16T11:01:49.018Z,99895.00
2024-04-16T11:04:19.938Z,99882.00
2024-04-16T11:06:48.630Z,99891.00
2024-04-16T11:09:17.144Z,99895.00
2024-04-16T11:11:45.349Z,99909.00
2024-04-16T11:14:14.619Z,99909.00
2024-04-16T11:16:42.962Z,99903.00
2024-04-16T11:19:10.919Z,99908.00
2024-04-16T11:21:38.652Z,99911.00
2024-04-16T11:24:08.953Z,99908.00
2024-04-16T11:26:39.147Z,99907.00
2024-04-16T11:29:06.591Z,99926.00
2024-04-16T11:31:34.863Z,99940.00
2024-04-16T11:34:02.613Z,99917.00
2024-04-16T11:36:29.994Z,99899.00
2024-04-16T11:38:57.442Z,99931.00
2024-04-16T11:41:24.940Z,99918.00
2024-04-16T11:43:52.334Z,99937.00
2024-04-16T11:46:19.854Z,99929.00
2024-04-16T11:48:49.859Z,99929.00
2024-04-16T11:51:17.599Z,99921.00
2024-04-16T11:53:45.677Z,99928.00
2024-04-16T11:56:13.712Z,99934.00
2024-04-16T11:58:42.862Z,99919.00
2024-04-16T12:01:13.882Z,99943.00
2024-04-16T12:03:41.536Z,99931.00
2024-04-16T12:06:09.038Z,99939.00
2024-04-16T12:08:36.406Z,99944.00
2024-04-16T12:11:04.380Z,99945.00
2024-04-16T12:13:31.773Z,99948.00
2024-04-16T12:15:59.036Z,99947.00
2024-04-16T12:18:26.329Z,99957.00
2024-04-16T12:20:53.709Z,99958.00
2024-04-16T12:23:21.046Z,99954.00
2024-04-16T12:25:51.571Z,99950.00
2024-04-16T12:28:20.507Z,99957.00
2024-04-16T12:30:47.911Z,99958.00
2024-04-16T12:33:16.978Z,99967.00
2024-04-16T12:35:45.156Z,99973.00
2024-04-16T12:38:12.792Z,99979.00
2024-04-16T12:40:40.413Z,99987.00
2024-04-16T12:43:08.224Z,99992.00
2024-04-16T12:45:35.686Z,99983.00
2024-04-16T12:48:03.025Z,99999.00
2024-04-16T12:51:45.818Z,100007.00
2024-04-16T12:54:13.059Z,100010.00
2024-04-16T12:56:40.384Z,100004.00
2024-04-16T12:59:07.694Z,100013.00
2024-04-16T13:01:34.967Z,100033.00
2024-04-16T13:04:02.350Z,100021.00
2024-04-16T13:06:30.830Z,100041.00
2024-04-16T13:08:58.356Z,100077.00
2024-04-16T13:11:25.942Z,100087.00
2024-04-16T13:13:53.674Z,100078.00
2024-04-16T13:16:21.109Z,100105.00
2024-04-16T13:18:48.921Z,100089.00
2024-04-16T13:21:17.196Z,100075.00
2024-04-16T13:23:44.483Z,100077.00
2024-04-16T13:26:11.854Z,100062.00
2024-04-16T13:29:16.804Z,100073.00
2024-04-16T13:31:44.150Z,100074.00
2024-04-16T13:34:11.419Z,100080.00
2024-04-16T13:36:38.659Z,100062.00
2024-04-16T13:39:06.002Z,100065.00
2024-04-16T13:41:33.268Z,100065.00
2024-04-16T13:44:00.450Z,100048.00
2024-04-16T13:46:27.742Z,100043.00
2024-04-16T13:48:55.003Z,100068.00
2024-04-16T13:51:22.236Z,100063.00
2024-04-16T13:53:49.473Z,100057.00
2024-04-16T13:56:16.798Z,100055.00
2024-04-16T13:58:44.077Z,100053.00
2024-04-16T14:01:11.510Z,100053.00
2024-04-16T14:03:38.885Z,100052.00
2024-04-16T14:06:06.509Z,100056.00
2024-04-16T14:08:36.183Z,100059.00
2024-04-16T14:11:03.809Z,100083.00
2024-04-16T14:13:31.311Z,100065.00
2024-04-16T14:15:58.674Z,100080.00
2024-04-16T14:18:26.335Z,100089.00
2024-04-16T14:20:53.530Z,100098.00
2024-04-16T14:23:20.787Z,100096.00
2024-04-16T14:25:48.027Z,100096.00
2024-04-16T14:28:15.235Z,100109.00
2024-04-16T14:30:42.504Z,100111.00
2024-04-16T14:33:10.064Z,100120.00
2024-04-16T14:35:37.308Z,100129.00
2024-04-16T14:38:06.426Z,100132.00
2024-04-16T14:40:33.634Z,100143.00
2024-04-16T14:43:01.106Z,100140.00
2024-04-16T14:45:28.362Z,100150.00
2024-04-16T14:47:55.932Z,100185.00
2024-04-16T14:50:23.954Z,100167.00
2024-04-16T14:52:51.694Z,100181.00
2024-04-16T14:55:19.014Z,100178.00
2024-04-16T14:57:46.862Z,100173.00
2024-04-16T15:00:15.474Z,100177.00
2024-04-16T15:02:43.672Z,100176.00
2024-04-16T15:05:10.943Z,100180.00
2024-04-16T15:07:38.297Z,100166.00
2024-04-16T15:10:06.335Z,100168.00
2024-04-16T15:12:33.651Z,100163.00
2024-04-16T15:15:01.059Z,100163.00
2024-04-16T15:17:28.362Z,100159.00
2024-04-16T15:20:34.863Z,100167.00
2024-04-16T15:23:35.627Z,100167.00
2024-04-16T15:26:03.007Z,100175.00
2024-04-16T15:28:30.938Z,100165.00
2024-04-16T15:30:58.219Z,100171.00
2024-04-16T15:33:28.635Z,100180.00
2024-04-16T15:35:56.135Z,100189.00
2024-04-16T15:38:23.707Z,100197.00
2024-04-16T15:40:52.059Z,100203.00
2024-04-16T15:43:38.412Z,100204.00
2024-04-16T15:46:06.093Z,100195.00
2024-04-16T15:48:36.766Z,100205.00
2024-04-16T15:51:26.431Z,100222.00
2024-04-16T15:53:53.935Z,100221.00
2024-04-16T15:56:21.271Z,100207.00
2024-04-16T15:58:48.835Z,100219.00
2024-04-16T16:01:18.203Z,100226.00
2024-04-16T16:03:45.823Z,100224.00
2024-04-16T16:06:13.340Z,100241.00
2024-04-16T16:08:40.676Z,100234.00
2024-04-16T16:11:08.447Z,100225.00
2024-04-16T16:13:36.051Z,100234.00
2024-04-16T16:16:03.593Z,100233.00
2024-04-16T16:18:32.095Z,100246.00
2024-04-16T16:20:59.917Z,100229.00
2024-04-16T16:23:30.334Z,100245.00
2024-04-16T16:25:57.968Z,100250.00
2024-04-16T16:28:25.448Z,100253.00
2024-04-16T16:30:55.702Z,100248.00
2024-04-16T16:33:23.360Z,100249.00
2024-04-16T16:35:50.791Z,100252.00
2024-04-16T16:38:18.276Z,100250.00
2024-04-16T16:40:45.813Z,100252.00
2024-04-16T16:43:14.813Z,100268.00
2024-04-16T16:45:42.760Z,100268.00
2024-04-16T16:48:10.711Z,100269.00
2024-04-16T16:50:38.071Z,100275.00
2024-04-16T16:53:06.639Z,100279.00
2024-04-16T16:55:33.935Z,100295.00
2024-04-16T16:58:01.904Z,100296.00
2024-04-16T17:00:29.859Z,100306.00
2024-04-16T17:02:57.406Z,100302.00
2024-04-16T17:05:24.938Z,100308.00
2024-04-16T17:07:52.275Z,100320.00
2024-04-16T17:10:20.036Z,100309.00
2024-04-16T17:12:47.814Z,100311.00
2024-04-16T17:15:15.128Z,100316.00
2024-04-16T17:17:42.578Z,100314.00
2024-04-16T17:20:10.309Z,100317.00
2024-04-16T17:22:37.857Z,100334.00
2024-04-16T17:25:05.537Z,100343.00
2024-04-16T17:27:32.872Z,100340.00
2024-04-16T17:30:00.351Z,100337.00
2024-04-16T17:32:27.907Z,100345.00
2024-04-16T17:34:55.264Z,100353.00
2024-04-16T17:37:22.687Z,100357.00
2024-04-16T17:39:50.386Z,100347.00
2024-04-16T17:42:18.005Z,100365.00
2024-04-16T17:44:45.827Z,100359.00
2024-04-16T17:47:13.127Z,100368.00
2024-04-16T17:49:41.450Z,100369.00
2024-04-16T17:52:08.796Z,100378.00
2024-04-16T17:54:36.363Z,100375.00
2024-04-16T17:57:03.947Z,100377.00
2024-04-16T17:59:34.752Z,100375.00
2024-04-16T18:02:02.159Z,100394.00
2024-04-16T18:04:29.755Z,100404.00
2024-04-16T18:06:57.434Z,100400.00
2024-04-16T18:09:24.657Z,100399.00
2024-04-16T18:11:52.037Z,100399.00
2024-04-16T18:14:19.398Z,100403.00
2024-04-16T18:16:46.727Z,100411.00
2024-04-16T18:19:14.166Z,100411.00
2024-04-16T18:21:42.120Z,100423.00
2024-04-16T18:24:09.889Z,100424.00
2024-04-16T18:26:40.165Z,100422.00
2024-04-16T18:29:07.938Z,100435.00
2024-04-16T18:31:35.206Z,100431.00
2024-04-16T18:34:03.864Z,100441.00
2024-04-16T18:36:31.170Z,100425.00
2024-04-16T18:38:58.427Z,100445.00
2024-04-16T18:41:25.820Z,100450.00
2024-04-16T18:43:53.611Z,100442.00
2024-04-16T18:46:20.866Z,100460.00
2024-04-16T18:48:48.283Z,100459.00
2024-04-16T18:51:15.707Z,100451.00
2024-04-16T18:53:43.177Z,100468.00
2024-04-16T18:56:14.749Z,100456.00
2024-04-16T18:58:42.304Z,100459.00
2024-04-16T19:01:10.061Z,100466.00
2024-04-16T19:03:37.585Z,100482.00
2024-04-16T19:06:04.998Z,100482.00
2024-04-16T19:08:33.066Z,100490.00
2024-04-16T19:11:00.641Z,100492.00
2024-04-16T19:13:28.245Z,100493.00
2024-04-16T19:16:01.022Z,100503.00
2024-04-16T19:18:29.363Z,100503.00
2024-04-16T19:20:57.690Z,100503.00
2024-04-16T19:23:26.850Z,100514.00
2024-04-16T19:25:55.498Z,100521.00
2024-04-16T19:28:26.871Z,100519.00
2024-04-16T19:30:55.227Z,100511.00
2024-04-16T19:33:22.555Z,100526.00
2024-04-16T19:35:50.056Z,100518.00
2024-04-16T19:38:17.411Z,100528.00
2024-04-16T19:40:44.704Z,100546.00
2024-04-16T19:43:11.981Z,100542.00
2024-04-16T19:45:39.319Z,100542.00
2024-04-16T19:48:09.579Z,100546.00
2024-04-16T19:50:37.122Z,100545.00
2024-04-16T19:53:04.417Z,100552.00
2024-04-16T19:55:31.730Z,100555.00
2024-04-16T19:57:59.607Z,100556.00
2024-04-16T20:00:26.942Z,100552.00
2024-04-16T20:02:54.679Z,100563.00
2024-04-16T20:05:22.158Z,100556.00
2024-04-16T20:07:50.664Z,100570.00
2024-04-16T20:10:21.088Z,100576.00
2024-04-16T20:12:51.576Z,100579.00
2024-04-16T20:15:18.844Z,100578.00
2024-04-16T20:17:46.183Z,100576.00
2024-04-16T20:20:14.136Z,100570.00
2024-04-16T20:22:41.417Z,100575.00
2024-04-16T20:25:08.797Z,100592.00
2024-04-16T20:27:36.089Z,100608.00
2024-04-16T20:30:03.733Z,100594.00
2024-04-16T20:32:31.051Z,100609.00
2024-04-16T20:34:59.875Z,100610.00
2024-04-16T20:37:27.217Z,100609.00
2024-04-16T20:39:54.527Z,100618.00
2024-04-16T20:42:21.860Z,100619.00
2024-04-16T20:44:49.199Z,100611.00
2024-04-16T20:47:16.521Z,100629.00
2024-04-16T20:49:45.925Z,100622.00
2024-04-16T20:52:13.546Z,100626.00
2024-04-16T20:54:40.787Z,100636.00
2024-04-16T20:57:10.953Z,100642.00
2024-04-16T20:59:41.716Z,100640.00
2024-04-16T21:02:10.290Z,100630.00
2024-04-16T21:04:37.788Z,100638.00
2024-04-16T21:07:05.337Z,100634.00
2024-04-16T21:09:32.781Z,100640.00
2024-04-16T21:12:00.010Z,100649.00
2024-04-16T21:14:27.423Z,100646.00
2024-04-16T21:16:54.799Z,100645.00
2024-04-16T21:19:22.249Z,100652.00
2024-04-16T21:21:51.225Z,100649.00
2024-04-16T21:24:18.731Z,100657.00
2024-04-16T21:26:46.096Z,100652.00
2024-04-16T21:29:15.591Z,100654.00
2024-04-16T21:31:44.056Z,100655.00
2024-04-16T21:34:11.744Z,100669.00
2024-04-16T21:36:39.143Z,100674.00
2024-04-16T21:39:07.409Z,100682.00
2024-04-16T21:41:34.673Z,100690.00
2024-04-16T21:44:04.351Z,100689.00
2024-04-16T21:46:34.138Z,100673.00
2024-04-16T21:49:02.394Z,100672.00
2024-04-16T21:51:29.794Z,100689.00
2024-04-16T21:54:00.954Z,100689.00
2024-04-16T21:56:34.695Z,100692.00
2024-04-16T21:59:02.729Z,100693.00
2024-04-16T22:01:31.616Z,100695.00
2024-04-16T22:03:59.912Z,100697.00
2024-04-16T22:06:27.267Z,100703.00
2024-04-16T22:08:54.551Z,100703.00
2024-04-16T22:11:22.025Z,100717.00
2024-04-16T22:13:49.574Z,100712.00
2024-04-16T22:16:17.100Z,100709.00
2024-04-16T22:18:44.476Z,100710.00
2024-04-16T22:21:11.747Z,100722.00
2024-04-16T22:23:41.652Z,100714.00
2024-04-16T22:26:09.470Z,100728.00
2024-04-16T22:28:38.893Z,100735.00
2024-04-16T22:31:06.148Z,100731.00
2024-04-16T22:33:34.135Z,100745.00
2024-04-16T22:36:01.560Z,100739.00
2024-04-16T22:38:28.985Z,100739.00
2024-04-16T22:41:35.276Z,100740.00
2024-04-16T22:44:02.582Z,100738.00
2024-04-16T22:46:30.790Z,100740.00
2024-04-16T22:48:58.081Z,100745.00
2024-04-16T22:51:25.492Z,100744.00
2024-04-16T22:54:31.681Z,100747.00
2024-04-16T22:56:59.042Z,100743.00
2024-04-16T22:59:29.899Z,100747.00
2024-04-16T23:02:02.516Z,100744.00
2024-04-16T23:04:30.397Z,100756.00
2024-04-16T23:06:57.737Z,100757.00
2024-04-16T23:09:25.061Z,100767.00
2024-04-16T23:11:53.352Z,100771.00
2024-04-16T23:14:20.694Z,100750.00
2024-04-16T23:17:09.259Z,100758.00
2024-04-16T23:19:36.599Z,100762.00
2024-04-16T23:22:03.966Z,100765.00
2024-04-16T23:24:31.172Z,100769.00
2024-04-16T23:31:08.216Z,100769.00
2024-04-16T23:33:35.679Z,100774.00
2024-04-16T23:36:02.835Z,100763.00
2024-04-16T23:38:30.189Z,100772.00
2024-04-16T23:40:57.539Z,100770.00
2024-04-16T23:43:24.774Z,100776.00
2024-04-16T23:46:05.611Z,100779.00
2024-04-16T23:48:33.531Z,100789.00
2024-04-16T23:51:01.020Z,100786.00
2024-04-16T23:53:28.373Z,100785.00
2024-04-16T23:55:55.687Z,100796.00
2024-04-16T23:58:22.955Z,100787.00
